Time;durP1;ratioP1;P1;durP2;ratioP2;P2;SDS_P1;SDS_P2;PMS_P1;PMS_P2;Temp;Humidity;BMP_temperature;BMP_pressure;BME280_temperature;BME280_humidity;BME280_pressure;Samples;Min_cycle;Max_cycle;Signal;HPM_P1;HPM_P2
2021/12/31 14:30:08;;;;;;;12.95;5.63;;;;;;;12.56;67.44;100098.34;4997205;28;106289;-73
2021/12/31 14:32:36;;;;;;;8.93;3.50;;;;;;;12.52;67.53;100104.09;4988925;28;105981;-71
2021/12/31 14:35:02;;;;;;;14.10;5.00;;;;;;;12.55;68.40;100104.72;4984767;28;105962;-73
2021/12/31 14:37:27;;;;;;;17.05;5.30;;;;;;;12.53;67.87;100105.75;4990846;28;106046;-69
2021/12/31 14:39:55;;;;;;;14.63;7.07;;;;;;;12.52;68.69;100097.88;4994689;28;106173;-70
2021/12/31 14:42:27;;;;;;;31.52;13.02;;;;;;;12.52;68.61;100105.91;4998926;28;106007;-72
2021/12/31 14:44:52;;;;;;;28.85;11.77;;;;;;;12.51;68.65;100109.63;4987610;28;105831;-72
2021/12/31 14:47:18;;;;;;;11.82;5.82;;;;;;;12.49;68.61;100096.44;4998713;28;105976;-72
2021/12/31 14:49:44;;;;;;;15.10;6.53;;;;;;;12.47;68.55;100101.13;4992718;28;105982;-70
2021/12/31 14:52:11;;;;;;;10.10;5.22;;;;;;;12.47;68.60;100100.31;4993304;28;106063;-70
2021/12/31 14:54:37;;;;;;;10.93;4.43;;;;;;;12.44;68.30;100101.50;4984645;28;106214;-71
2021/12/31 14:57:04;;;;;;;8.13;4.47;;;;;;;12.43;68.53;100099.84;5001031;28;105981;-70
2021/12/31 15:02:06;;;;;;;9.93;5.53;;;;;;;12.38;68.56;100088.88;5018582;28;106088;-69
2021/12/31 15:04:32;;;;;;;8.73;5.05;;;;;;;12.38;69.14;100090.72;4990969;28;105798;-72
2021/12/31 15:06:57;;;;;;;11.35;5.60;;;;;;;12.36;68.36;100085.56;5001293;28;106285;-70
2021/12/31 15:11:39;;;;;;;12.23;6.25;;;;;;;12.34;68.73;100077.75;5014474;28;106192;-71
2021/12/31 15:14:04;;;;;;;13.02;6.63;;;;;;;12.33;69.06;100081.41;5014235;27;106090;-70
2021/12/31 15:21:27;;;;;;;17.80;7.28;;;;;;;12.30;68.93;100079.13;4993375;28;106434;-69
2021/12/31 15:23:53;;;;;;;10.20;5.90;;;;;;;12.28;68.36;100078.47;4995641;28;106075;-69
2021/12/31 15:26:20;;;;;;;10.70;5.53;;;;;;;12.21;68.99;100082.06;4998273;28;106217;-69
2021/12/31 15:28:46;;;;;;;11.70;5.68;;;;;;;12.16;68.47;100078.09;4988056;28;106566;-70
2021/12/31 15:31:12;;;;;;;10.65;5.05;;;;;;;12.09;68.71;100087.03;5000604;28;106062;-71
2021/12/31 15:33:39;;;;;;;9.80;5.28;;;;;;;12.00;68.75;100078.25;4993413;28;106052;-69
2021/12/31 15:36:07;;;;;;;13.60;7.07;;;;;;;11.95;69.17;100094.00;4993103;28;105857;-71
2021/12/31 15:38:35;;;;;;;13.30;6.75;;;;;;;11.90;68.92;100094.50;5000103;28;106028;-70
2021/12/31 15:41:02;;;;;;;14.57;6.28;;;;;;;11.84;69.01;100085.38;4988330;28;106138;-72
2021/12/31 15:43:27;;;;;;;10.48;5.50;;;;;;;11.82;68.72;100082.09;4999383;28;106042;-75
2021/12/31 15:45:53;;;;;;;12.23;6.70;;;;;;;11.77;68.48;100089.81;4995016;28;106016;-69
2021/12/31 15:48:18;;;;;;;11.05;6.63;;;;;;;11.74;69.50;100079.50;4989823;28;107594;-70
2021/12/31 15:50:44;;;;;;;13.65;6.82;;;;;;;11.70;68.68;100080.88;5001011;28;106087;-70
2021/12/31 15:53:09;;;;;;;11.07;6.40;;;;;;;11.67;69.69;100071.38;4987912;28;105902;-71
2021/12/31 15:55:35;;;;;;;11.25;6.00;;;;;;;11.64;69.01;100068.22;4995674;28;106206;-75
2021/12/31 15:58:02;;;;;;;11.70;6.82;;;;;;;11.61;69.35;100071.25;4995363;28;105825;-71
2021/12/31 16:00:29;;;;;;;12.57;6.57;;;;;;;11.60;69.21;100072.28;4989026;28;106035;-69
2021/12/31 16:02:55;;;;;;;14.10;7.05;;;;;;;11.58;69.22;100075.13;4992573;28;106108;-69
2021/12/31 16:05:21;;;;;;;13.45;6.63;;;;;;;11.56;69.12;100071.78;4984210;28;105892;-71
2021/12/31 16:07:47;;;;;;;10.70;6.00;;;;;;;11.56;69.25;100070.97;4984371;28;106708;-73
2021/12/31 16:10:14;;;;;;;12.70;7.03;;;;;;;11.54;69.34;100072.97;4985429;28;106014;-70
2021/12/31 16:12:39;;;;;;;15.13;7.55;;;;;;;11.51;69.14;100061.66;4987347;28;105938;-69
2021/12/31 16:15:05;;;;;;;17.33;8.57;;;;;;;11.51;69.27;100066.19;5003239;28;106177;-77
2021/12/31 16:17:31;;;;;;;16.17;8.35;;;;;;;11.47;69.19;100057.69;4981548;28;108334;-70
2021/12/31 16:19:57;;;;;;;14.82;8.75;;;;;;;11.47;69.84;100056.88;4962960;28;106063;-68
2021/12/31 16:22:22;;;;;;;18.52;8.35;;;;;;;11.46;69.97;100055.22;4963916;28;106005;-69
2021/12/31 16:24:47;;;;;;;18.40;7.63;;;;;;;11.45;69.61;100049.03;4963269;28;106150;-71
2021/12/31 16:27:13;;;;;;;12.70;7.28;;;;;;;11.42;69.90;100048.56;4962910;28;105992;-70
2021/12/31 16:30:08;;;;;;;13.68;8.13;;;;;;;11.41;69.66;100042.41;4963017;28;107350;-70
2021/12/31 16:32:33;;;;;;;13.88;8.05;;;;;;;11.39;69.92;100047.09;4949921;28;106063;-69
2021/12/31 16:35:02;;;;;;;13.80;6.97;;;;;;;11.36;69.24;100039.47;4952595;28;107693;-71
2021/12/31 16:37:27;;;;;;;12.90;7.20;;;;;;;11.34;69.55;100039.66;4950709;28;106064;-74
2021/12/31 16:48:59;;;;;;;15.05;6.72;;;;;;;11.26;70.15;100054.84;4999306;28;106136;-70
2021/12/31 16:53:50;;;;;;;16.60;7.25;;;;;;;11.21;69.91;100051.88;5006855;28;106169;-70
2021/12/31 16:56:15;;;;;;;14.48;7.47;;;;;;;11.21;69.79;100046.56;5006400;28;105849;-71
2021/12/31 16:58:40;;;;;;;12.27;7.15;;;;;;;11.20;69.89;100040.41;5005013;28;106157;-69
2021/12/31 17:01:06;;;;;;;11.02;6.82;;;;;;;11.20;69.69;100034.25;5005093;28;106064;-70
2021/12/31 17:03:31;;;;;;;9.65;6.13;;;;;;;11.20;69.99;100035.06;4970623;28;106323;-68
2021/12/31 17:05:56;;;;;;;13.15;6.90;;;;;;;11.21;70.36;100028.75;4964668;28;106334;-68
2021/12/31 17:08:21;;;;;;;12.48;6.45;;;;;;;11.22;69.63;100022.41;4964141;28;106820;-68
2021/12/31 17:10:47;;;;;;;11.90;5.95;;;;;;;11.24;69.88;100024.91;4961330;28;112839;-69
2021/12/31 17:13:12;;;;;;;10.57;6.20;;;;;;;11.23;70.57;100029.38;4963202;28;106174;-73
2021/12/31 17:15:38;;;;;;;12.18;6.50;;;;;;;11.24;70.25;100016.88;4964500;28;106619;-73
2021/12/31 17:18:04;;;;;;;10.85;5.97;;;;;;;11.23;70.43;100021.38;4963706;28;106178;-70
2021/12/31 17:20:31;;;;;;;9.43;5.40;;;;;;;11.24;70.65;100020.38;4963280;28;106222;-73
2021/12/31 17:22:57;;;;;;;12.07;6.05;;;;;;;11.24;70.49;100016.88;4963009;28;106031;-72
2021/12/31 17:25:23;;;;;;;10.70;6.28;;;;;;;11.25;70.94;100015.84;4964064;28;106579;-73
2021/12/31 17:27:49;;;;;;;10.60;6.47;;;;;;;11.24;70.81;100024.91;4963090;28;105940;-69
2021/12/31 17:30:15;;;;;;;12.88;6.50;;;;;;;11.26;70.69;100028.19;4963106;28;105983;-69
2021/12/31 17:32:41;;;;;;;11.27;6.72;;;;;;;11.27;70.36;100019.19;4963580;28;106376;-71
2021/12/31 17:35:09;;;;;;;9.52;5.40;;;;;;;11.26;70.31;100023.72;4964098;28;106122;-74
2021/12/31 17:37:34;;;;;;;12.13;6.75;;;;;;;11.26;70.38;100021.03;4963440;28;106275;-69
2021/12/31 17:40:00;;;;;;;10.10;6.00;;;;;;;11.25;70.70;100021.19;4962794;28;106657;-74
2021/12/31 17:42:27;;;;;;;15.23;7.05;;;;;;;11.25;70.80;100018.53;4963510;28;106177;-70
2021/12/31 17:44:52;;;;;;;15.93;7.07;;;;;;;11.24;70.90;100019.56;4964128;28;106035;-75
2021/12/31 17:47:18;;;;;;;14.98;7.05;;;;;;;11.28;70.94;100028.88;4964647;28;105942;-75
2021/12/31 17:49:44;;;;;;;16.67;8.88;;;;;;;11.26;71.25;100033.53;4964528;28;105913;-69
2021/12/31 17:52:09;;;;;;;16.38;7.57;;;;;;;11.27;71.01;100021.84;4962559;28;106137;-74
2021/12/31 17:54:35;;;;;;;11.63;7.00;;;;;;;11.27;70.63;100021.84;4964083;28;106603;-74
2021/12/31 17:57:03;;;;;;;11.18;6.53;;;;;;;11.28;71.20;100021.69;4962840;28;106815;-70
2021/12/31 17:59:28;;;;;;;14.25;7.47;;;;;;;11.30;70.64;100017.00;4962807;28;106128;-70
2021/12/31 18:01:54;;;;;;;16.27;7.88;;;;;;;11.31;70.70;100009.81;4962549;28;106116;-71
2021/12/31 18:04:19;;;;;;;14.32;7.50;;;;;;;11.31;71.00;100020.50;4955695;28;106524;-77
2021/12/31 18:06:44;;;;;;;13.15;7.88;;;;;;;11.32;70.81;100022.16;4950021;28;106323;-77
2021/12/31 18:09:10;;;;;;;12.60;7.22;;;;;;;11.31;71.14;100031.97;4949912;28;108109;-66
2021/12/31 18:11:35;;;;;;;14.63;8.15;;;;;;;11.33;70.69;100031.78;4962790;28;106123;-68
2021/12/31 18:14:00;;;;;;;15.07;8.05;;;;;;;11.34;71.17;100036.13;4971543;28;105856;-73
2021/12/31 18:16:26;;;;;;;13.32;7.90;;;;;;;11.37;71.02;100035.75;4954299;28;106378;-69
2021/12/31 18:18:51;;;;;;;13.25;8.55;;;;;;;11.38;70.47;100033.94;4949686;28;106427;-68
2021/12/31 18:21:16;;;;;;;43.47;29.73;;;;;;;11.37;71.11;100032.28;4949903;28;106079;-74
2021/12/31 18:23:46;;;;;;;114.13;58.40;;;;;;;11.39;70.67;100024.94;4948581;28;106185;-74
2021/12/31 18:26:14;;;;;;;12.30;7.82;;;;;;;11.41;71.28;100013.06;4948991;28;106213;-73
2021/12/31 18:28:40;;;;;;;16.20;9.20;;;;;;;11.41;70.80;100023.72;4949095;28;107704;-70
2021/12/31 18:31:05;;;;;;;17.90;12.15;;;;;;;11.39;71.53;100028.44;4949368;28;106380;-71
2021/12/31 18:33:30;;;;;;;19.00;10.48;;;;;;;11.40;71.03;100029.25;4949427;28;106162;-73
2021/12/31 18:35:56;;;;;;;15.38;7.95;;;;;;;11.40;70.38;100024.75;4948919;28;105988;-71
2021/12/31 18:38:21;;;;;;;15.70;8.00;;;;;;;11.43;71.22;100028.91;4949652;28;106122;-69
2021/12/31 18:40:46;;;;;;;17.98;9.18;;;;;;;11.43;71.09;100029.72;4948926;28;106127;-76
2021/12/31 18:43:12;;;;;;;18.75;9.32;;;;;;;11.44;70.85;100027.88;4950471;28;106019;-73
2021/12/31 18:45:37;;;;;;;19.48;9.82;;;;;;;11.44;71.25;100023.38;4949726;28;106201;-76
2021/12/31 18:48:04;;;;;;;19.85;8.95;;;;;;;11.44;71.04;100031.41;4948854;28;106072;-74
2021/12/31 18:50:29;;;;;;;16.42;8.57;;;;;;;11.43;71.19;100032.41;4947938;28;108615;-74
2021/12/31 18:52:55;;;;;;;22.65;9.15;;;;;;;11.44;70.53;100036.72;4949224;28;106093;-75
2021/12/31 18:55:25;;;;;;;14.82;7.88;;;;;;;11.46;71.38;100042.69;4949510;28;106172;-71
2021/12/31 18:57:51;;;;;;;19.05;8.80;;;;;;;11.45;71.04;100038.34;4949000;28;106074;-75
2021/12/31 19:00:17;;;;;;;13.65;7.85;;;;;;;11.45;70.67;100041.03;4949085;28;106084;-70
2021/12/31 19:02:42;;;;;;;19.85;8.25;;;;;;;11.46;70.95;100040.03;4949198;28;106044;-70
2021/12/31 19:05:08;;;;;;;14.70;6.90;;;;;;;11.46;70.72;100037.34;4949429;28;106196;-74
2021/12/31 19:07:35;;;;;;;10.13;6.18;;;;;;;11.48;71.37;100045.19;4949365;28;106802;-76
2021/12/31 19:10:01;;;;;;;14.95;6.70;;;;;;;11.48;71.08;100040.69;4949707;28;106413;-79
2021/12/31 19:12:26;;;;;;;14.38;7.30;;;;;;;11.50;71.01;100038.66;4950044;28;106489;-78
2021/12/31 19:14:51;;;;;;;30.17;17.02;;;;;;;11.52;70.88;100039.31;4948279;28;106318;-76
2021/12/31 19:17:17;;;;;;;16.90;8.82;;;;;;;11.54;70.49;100028.47;4947784;28;105881;-73
2021/12/31 19:19:42;;;;;;;15.77;7.97;;;;;;;11.55;71.11;100029.28;4948884;28;106000;-73
2021/12/31 19:22:07;;;;;;;13.13;7.22;;;;;;;11.54;70.21;100025.81;4949877;28;106811;-71
2021/12/31 19:24:34;;;;;;;10.68;5.57;;;;;;;11.55;70.47;100021.28;4949114;28;106180;-76
2021/12/31 19:27:00;;;;;;;11.23;5.28;;;;;;;11.57;70.61;100016.59;4948537;28;106059;-74
2021/12/31 19:29:25;;;;;;;9.63;4.47;;;;;;;11.60;70.47;100024.25;4948720;28;106162;-72
2021/12/31 19:31:51;;;;;;;8.48;3.75;;;;;;;11.63;70.29;100035.41;4949813;28;106120;-73
2021/12/31 19:34:16;;;;;;;6.68;3.53;;;;;;;11.67;70.52;100036.69;4948894;28;106280;-73
2021/12/31 19:36:41;;;;;;;7.88;3.92;;;;;;;11.71;70.62;100023.78;4948074;28;106733;-73
2021/12/31 19:39:07;;;;;;;7.60;4.30;;;;;;;11.72;70.60;100022.78;4948543;28;106047;-74
2021/12/31 19:41:32;;;;;;;12.25;4.60;;;;;;;11.75;69.67;100032.28;4949445;28;106127;-74
2021/12/31 19:43:59;;;;;;;8.13;4.60;;;;;;;11.76;70.17;100023.28;4948350;28;106241;-75
2021/12/31 19:46:25;;;;;;;8.98;5.07;;;;;;;11.76;70.03;100034.75;4948145;28;106087;-74
2021/12/31 19:48:50;;;;;;;9.93;4.93;;;;;;;11.77;70.31;100030.25;4947909;28;106058;-71
2021/12/31 19:51:15;;;;;;;7.30;4.25;;;;;;;11.76;69.84;100032.09;4948573;28;106529;-71
2021/12/31 19:53:41;;;;;;;8.93;4.47;;;;;;;11.76;70.27;100033.94;4948201;28;106026;-74
2021/12/31 19:56:06;;;;;;;6.38;4.00;;;;;;;11.76;69.95;100039.28;4948392;28;107017;-73
2021/12/31 19:58:31;;;;;;;11.00;5.45;;;;;;;11.76;70.22;100040.09;4948615;28;106031;-76
2021/12/31 20:00:57;;;;;;;12.07;5.10;;;;;;;11.77;70.00;100032.91;4949411;28;106044;-70
2021/12/31 20:03:22;;;;;;;12.13;4.90;;;;;;;11.77;69.75;100048.91;4947467;28;106298;-70
2021/12/31 20:05:47;;;;;;;7.38;4.38;;;;;;;11.77;70.08;100047.09;4947933;28;106657;-74
2021/12/31 20:08:14;;;;;;;8.30;4.63;;;;;;;11.78;69.63;100047.91;4945917;28;106310;-74
2021/12/31 20:10:40;;;;;;;7.47;4.28;;;;;;;11.79;70.46;100044.25;4948840;28;106067;-74
2021/12/31 20:13:06;;;;;;;10.15;4.47;;;;;;;11.79;69.86;100050.41;4948101;28;106540;-73
2021/12/31 20:15:33;;;;;;;7.97;4.40;;;;;;;11.80;70.33;100065.41;4947730;28;106681;-71
2021/12/31 20:17:58;;;;;;;5.60;3.35;;;;;;;11.82;70.09;100075.91;4948055;28;106055;-73
2021/12/31 20:20:24;;;;;;;8.02;4.50;;;;;;;11.83;70.24;100075.72;4948834;28;106080;-73
2021/12/31 20:22:50;;;;;;;7.18;4.03;;;;;;;11.82;70.02;100076.75;4947993;28;106263;-72
2021/12/31 20:25:21;;;;;;;7.70;4.60;;;;;;;11.78;69.58;100069.28;4947496;28;106035;-71
2021/12/31 20:27:47;;;;;;;9.02;4.35;;;;;;;11.73;70.34;100069.81;4947213;28;106035;-70
2021/12/31 20:30:15;;;;;;;9.63;6.15;;;;;;;11.70;70.61;100080.88;4948861;28;106089;-76
2021/12/31 20:32:41;;;;;;;20.13;12.73;;;;;;;11.68;70.25;100077.53;4947954;28;106248;-73
2021/12/31 20:35:07;;;;;;;11.02;4.25;;;;;;;11.64;71.34;100084.25;4946958;28;106435;-73
2021/12/31 20:37:33;;;;;;;7.20;3.80;;;;;;;11.60;71.05;100072.28;4950894;28;107179;-73
2021/12/31 20:39:58;;;;;;;5.07;3.33;;;;;;;11.58;71.00;100080.47;4967507;28;106306;-72
2021/12/31 20:42:24;;;;;;;10.25;4.65;;;;;;;11.56;70.75;100071.78;4967542;28;106379;-73
2021/12/31 20:44:49;;;;;;;10.07;5.18;;;;;;;11.55;71.54;100075.47;4967113;28;106170;-72
2021/12/31 20:47:15;;;;;;;9.15;4.43;;;;;;;11.54;71.47;100072.97;4967264;28;106112;-75
2021/12/31 20:49:40;;;;;;;7.32;2.95;;;;;;;11.55;71.84;100074.63;4979055;28;106209;-73
2021/12/31 20:52:06;;;;;;;7.22;3.53;;;;;;;11.57;71.31;100083.31;4986407;28;106126;-75
2021/12/31 20:54:32;;;;;;;5.55;2.88;;;;;;;11.55;72.09;100075.47;4986814;28;106069;-72
2021/12/31 20:56:59;;;;;;;3.35;2.15;;;;;;;11.59;71.64;100071.44;4986245;28;106061;-68
2021/12/31 20:59:24;;;;;;;5.45;2.80;;;;;;;11.58;72.45;100084.97;4987327;28;106158;-71
2021/12/31 21:01:50;;;;;;;4.80;3.15;;;;;;;11.57;72.54;100083.31;4980008;28;106262;-77
2021/12/31 21:04:15;;;;;;;7.30;3.40;;;;;;;11.57;71.80;100083.31;4975935;28;106713;-76
2021/12/31 21:06:41;;;;;;;6.88;2.83;;;;;;;11.57;72.30;100084.13;4964964;28;106077;-75
2021/12/31 21:09:06;;;;;;;6.35;3.15;;;;;;;11.60;72.10;100080.28;4966831;28;105988;-71
2021/12/31 21:11:32;;;;;;;5.78;2.47;;;;;;;11.62;72.05;100086.28;4966338;28;106261;-72
2021/12/31 21:13:57;;;;;;;5.25;2.55;;;;;;;11.60;72.06;100090.94;4966444;28;106167;-72
2021/12/31 21:16:23;;;;;;;4.20;1.83;;;;;;;11.62;72.67;100081.75;4964937;28;106767;-71
2021/12/31 21:18:49;;;;;;;4.78;2.70;;;;;;;11.60;72.34;100077.59;4967349;28;106174;-78
2021/12/31 21:21:15;;;;;;;81.53;46.22;;;;;;;11.58;72.75;100074.31;4966619;28;106186;-77
2021/12/31 21:23:40;;;;;;;6.10;2.47;;;;;;;11.58;72.07;100074.31;4966078;28;106644;-71
2021/12/31 21:26:06;;;;;;;7.10;3.00;;;;;;;11.55;72.79;100080.81;4965766;28;106441;-70
2021/12/31 21:28:31;;;;;;;4.53;2.85;;;;;;;11.53;72.50;100082.81;4966734;28;106528;-71
2021/12/31 21:30:57;;;;;;;5.55;2.58;;;;;;;11.51;73.41;100075.00;4966090;28;106127;-72
2021/12/31 21:33:22;;;;;;;6.05;3.45;;;;;;;11.49;72.67;100084.19;4966528;28;106445;-73
2021/12/31 21:35:48;;;;;;;5.18;3.17;;;;;;;11.47;72.89;100086.22;4966150;28;106265;-74
2021/12/31 21:38:14;;;;;;;8.00;3.35;;;;;;;11.47;72.98;100092.38;4966977;28;106541;-75
2021/12/31 21:40:41;;;;;;;3.88;2.28;;;;;;;11.44;73.59;100068.72;4969017;28;106015;-76
2021/12/31 21:43:07;;;;;;;4.18;2.22;;;;;;;11.44;73.71;100090.06;4969723;28;106352;-76
2021/12/31 21:45:33;;;;;;;6.30;3.40;;;;;;;11.38;73.58;100088.09;4970086;28;106056;-78
2021/12/31 21:47:58;;;;;;;3.10;2.22;;;;;;;11.34;73.81;100100.13;4975478;28;106042;-72
2021/12/31 21:50:23;;;;;;;8.85;3.35;;;;;;;11.25;74.14;100091.38;4970701;28;106507;-78
2021/12/31 21:52:49;;;;;;;6.28;2.88;;;;;;;11.20;74.26;100099.06;4971162;28;106102;-74
2021/12/31 21:55:16;;;;;;;7.05;3.20;;;;;;;11.15;74.72;100102.28;4969122;28;106587;-77
2021/12/31 21:57:44;;;;;;;8.43;3.95;;;;;;;11.09;74.55;100096.81;4970681;28;106160;-76
2021/12/31 22:00:17;;;;;;;4.43;3.03;;;;;;;11.02;75.26;100099.34;4969575;28;106287;-78
2021/12/31 22:02:43;;;;;;;6.30;3.28;;;;;;;10.97;75.42;100097.19;4968695;28;106189;-74
2021/12/31 22:05:09;;;;;;;6.90;3.70;;;;;;;10.95;75.70;100112.53;4969260;28;106043;-74
2021/12/31 22:07:35;;;;;;;11.52;5.88;;;;;;;10.90;75.75;100109.56;4970390;28;106460;-74
2021/12/31 22:10:00;;;;;;;4.43;3.17;;;;;;;10.89;76.32;100117.72;4969159;28;105979;-73
2021/12/31 22:12:25;;;;;;;8.20;4.15;;;;;;;10.83;76.55;100125.41;4969200;28;107027;-75
2021/12/31 22:14:51;;;;;;;6.75;3.53;;;;;;;10.80;76.46;100115.09;4968704;28;106134;-71
2021/12/31 22:17:17;;;;;;;7.28;4.32;;;;;;;10.78;76.48;100111.78;4969720;28;106157;-73
2021/12/31 22:19:43;;;;;;;8.82;5.22;;;;;;;10.77;76.94;100119.94;4969323;28;106707;-76
2021/12/31 22:22:09;;;;;;;8.35;5.63;;;;;;;10.77;76.97;100112.78;4968521;28;105994;-73
2021/12/31 22:24:36;;;;;;;8.60;4.70;;;;;;;10.79;77.10;100110.78;4969338;28;106502;-74
2021/12/31 22:27:02;;;;;;;6.40;3.60;;;;;;;10.79;77.26;100107.28;4969251;28;106126;-73
2021/12/31 22:29:28;;;;;;;5.28;3.13;;;;;;;10.78;77.42;100117.09;4969239;28;106167;-74
2021/12/31 22:31:53;;;;;;;6.78;3.92;;;;;;;10.77;77.02;100112.78;4968573;28;106005;-74
2021/12/31 22:34:19;;;;;;;3.72;2.58;;;;;;;10.77;78.02;100123.47;4968457;28;106301;-75
2021/12/31 22:36:45;;;;;;;5.75;3.83;;;;;;;10.78;77.18;100125.09;4969645;28;106028;-74
2021/12/31 22:39:10;;;;;;;34.83;16.00;;;;;;;10.77;77.73;100128.78;4968802;28;106353;-75
2021/12/31 22:41:35;;;;;;;6.53;3.50;;;;;;;10.77;77.67;100128.78;4968561;28;105963;-71
2021/12/31 22:44:01;;;;;;;5.97;3.72;;;;;;;10.77;77.84;100130.59;4968608;28;106435;-70
2021/12/31 22:46:26;;;;;;;6.10;3.53;;;;;;;10.75;77.90;100133.44;4969566;28;106052;-73
2021/12/31 22:48:51;;;;;;;10.55;4.57;;;;;;;10.74;77.84;100136.28;4968708;28;106504;-74
2021/12/31 22:51:17;;;;;;;8.55;4.03;;;;;;;10.72;77.92;100122.31;4968186;28;106671;-72
2021/12/31 22:53:43;;;;;;;8.85;4.13;;;;;;;10.72;78.29;100130.31;4965725;28;109875;-73
2021/12/31 22:56:08;;;;;;;6.93;4.20;;;;;;;10.71;78.46;100139.31;4969577;28;106613;-75
2021/12/31 22:58:33;;;;;;;8.68;5.93;;;;;;;10.69;78.18;100134.16;4968493;28;107155;-74
2021/12/31 23:00:58;;;;;;;25.48;19.67;;;;;;;10.68;78.35;100127.16;4968222;28;106699;-74
2021/12/31 23:03:26;;;;;;;89.50;60.75;;;;;;;10.70;78.08;100129.63;4967085;28;106067;-75
2021/12/31 23:05:56;;;;;;;67.80;47.60;;;;;;;10.70;78.69;100143.78;4968242;28;106460;-72
2021/12/31 23:08:21;;;;;;;31.67;24.30;;;;;;;10.69;78.76;100139.47;4968000;28;105933;-75
2021/12/31 23:10:47;;;;;;;29.65;23.38;;;;;;;10.68;78.82;100158.31;4967435;28;106050;-72
